TimeEDT,TemperatureF,Dew PointF,Humidity,Sea Level PressureIn,VisibilityMPH,Wind Direction,Wind SpeedMPH,Gust SpeedMPH,PrecipitationIn,Events,Conditions,WindDirDegrees,DateUTC
12:53 AM,34.0,26.1,73,30.30,10.0,Calm,Calm,-,N/A,,Clear,0,2013-03-29 04:53:00
1:53 AM,33.1,27.0,78,30.30,10.0,Calm,Calm,-,N/A,,Clear,0,2013-03-29 05:53:00
2:53 AM,33.1,27.0,78,30.31,10.0,Calm,Calm,-,N/A,,Clear,0,2013-03-29 06:53:00
3:53 AM,32.0,26.1,79,30.31,10.0,Calm,Calm,-,N/A,,Clear,0,2013-03-29 07:53:00
4:53 AM,30.9,26.1,82,30.31,10.0,Calm,Calm,-,N/A,,Clear,0,2013-03-29 08:53:00
5:53 AM,30.9,26.1,82,30.32,10.0,Calm,Calm,-,N/A,,Clear,0,2013-03-29 09:53:00
6:53 AM,30.0,26.1,85,30.33,10.0,Calm,Calm,-,N/A,,Clear,0,2013-03-29 10:53:00
7:53 AM,32.0,26.1,79,30.35,10.0,Calm,Calm,-,N/A,,Clear,0,2013-03-29 11:53:00
8:53 AM,45.0,30.0,56,30.35,10.0,North,3.5,-,N/A,,Clear,10,2013-03-29 12:53:00
9:53 AM,51.1,26.1,38,30.35,10.0,Calm,Calm,-,N/A,,Clear,0,2013-03-29 13:53:00
10:53 AM,54.0,23.0,30,30.35,10.0,Calm,Calm,-,N/A,,Clear,0,2013-03-29 14:53:00
11:53 AM,57.0,24.1,28,30.34,10.0,South,5.8,-,N/A,,Clear,190,2013-03-29 15:53:00
12:53 PM,60.1,24.1,25,30.31,10.0,West,10.4,-,N/A,,Clear,270,2013-03-29 16:53:00
1:53 PM,60.1,23.0,24,30.29,10.0,Variable,4.6,-,N/A,,Clear,0,2013-03-29 17:53:00
2:53 PM,61.0,24.1,24,30.26,10.0,NNW,8.1,-,N/A,,Clear,330,2013-03-29 18:53:00
3:53 PM,62.1,23.0,22,30.22,10.0,Variable,3.5,16.1,N/A,,Clear,0,2013-03-29 19:53:00
4:53 PM,64.0,24.1,22,30.22,10.0,West,8.1,-,N/A,,Clear,280,2013-03-29 20:53:00
5:53 PM,62.1,24.1,23,30.21,10.0,WNW,6.9,-,N/A,,Scattered Clouds,300,2013-03-29 21:53:00
6:53 PM,61.0,26.1,26,30.21,10.0,SSW,6.9,-,N/A,,Overcast,210,2013-03-29 22:53:00
7:53 PM,60.1,27.0,28,30.22,10.0,Calm,Calm,-,N/A,,Overcast,0,2013-03-29 23:53:00
8:53 PM,55.9,30.9,39,30.22,10.0,SSW,3.5,-,N/A,,Overcast,200,2013-03-30 00:53:00
9:53 PM,55.0,33.1,43,30.23,10.0,Calm,Calm,-,N/A,,Overcast,0,2013-03-30 01:53:00
10:53 PM,55.9,32.0,40,30.23,10.0,Calm,Calm,-,N/A,,Overcast,0,2013-03-30 02:53:00
11:53 PM,54.0,35.1,49,30.24,10.0,SSW,6.9,-,N/A,,Overcast,210,2013-03-30 03:53:00